createdAt,value
2023-02-22T00:02:25.394Z,9.25
2023-02-22T00:05:31.417Z,10.13
2023-02-22T00:08:36.008Z,9.67
2023-02-22T00:11:39.138Z,13.07
2023-02-22T00:14:42.288Z,13.40
2023-02-22T00:17:46.206Z,10.85
2023-02-22T00:20:49.059Z,10.33
2023-02-22T00:23:54.679Z,9.55
2023-02-22T00:26:57.389Z,12.57
2023-02-22T00:29:59.981Z,6.03
2023-02-22T00:33:06.055Z,12.93
2023-02-22T00:36:09.562Z,7.47
2023-02-22T00:39:12.429Z,10.95
2023-02-22T00:42:14.959Z,9.95
2023-02-22T00:45:19.474Z,12.30
2023-02-22T00:48:23.740Z,9.67
2023-02-22T00:51:27.135Z,13.63
2023-02-22T00:54:29.703Z,8.55
2023-02-22T00:57:34.570Z,10.10
2023-02-22T01:00:40.125Z,13.70
2023-02-22T01:03:44.029Z,10.10
2023-02-22T01:09:48.984Z,8.87
2023-02-22T01:12:51.744Z,9.97
2023-02-22T01:15:56.738Z,15.67
2023-02-22T01:19:01.359Z,13.43
2023-02-22T01:22:05.416Z,8.40
2023-02-22T01:25:08.737Z,10.23
2023-02-22T01:28:12.866Z,11.75
2023-02-22T01:31:16.242Z,9.93
2023-02-22T01:34:20.765Z,14.07
2023-02-22T01:37:23.451Z,13.60
2023-02-22T01:40:27.984Z,12.63
2023-02-22T01:43:32.501Z,14.33
2023-02-22T01:46:35.160Z,15.07
2023-02-22T01:49:41.849Z,11.13
2023-02-22T01:52:44.459Z,17.00
2023-02-22T01:55:47.782Z,11.07
2023-02-22T01:58:52.402Z,13.23
2023-02-22T02:01:55.029Z,15.43
2023-02-22T02:04:59.434Z,11.80
2023-02-22T02:08:07.277Z,14.47
2023-02-22T02:11:10.323Z,15.03
2023-02-22T02:14:13.585Z,13.50
2023-02-22T02:17:19.172Z,10.25
2023-02-22T02:20:26.334Z,10.37
2023-02-22T02:23:50.966Z,7.27
2023-02-22T02:27:09.250Z,11.27
2023-02-22T02:30:27.003Z,7.87
2023-02-22T02:33:34.325Z,9.97
2023-02-22T02:36:42.471Z,9.13
2023-02-22T02:39:50.238Z,11.23
2023-02-22T02:42:58.342Z,12.40
2023-02-22T02:46:05.653Z,11.07
2023-02-22T02:49:12.344Z,10.53
2023-02-22T02:52:16.245Z,12.57
2023-02-22T02:58:23.986Z,11.17
2023-02-22T03:01:40.981Z,9.20
2023-02-22T03:04:54.149Z,10.10
2023-02-22T03:08:02.068Z,15.50
2023-02-22T03:11:15.296Z,10.27
2023-02-22T03:14:23.846Z,11.13
2023-02-22T03:17:30.248Z,13.03
2023-02-22T03:20:43.209Z,12.57
2023-02-22T03:23:48.858Z,9.13
2023-02-22T03:26:56.357Z,10.43
2023-02-22T03:30:03.235Z,12.67
2023-02-22T03:33:10.914Z,9.10
2023-02-22T03:36:18.383Z,9.73
2023-02-22T03:39:21.358Z,10.30
2023-02-22T03:42:27.547Z,10.60
2023-02-22T03:45:30.999Z,12.47
2023-02-22T03:48:39.368Z,11.88
2023-02-22T03:51:43.485Z,11.23
2023-02-22T03:54:46.323Z,16.73
2023-02-22T03:57:51.523Z,11.20
2023-02-22T04:00:54.037Z,10.90
2023-02-22T04:03:56.774Z,10.97
2023-02-22T04:07:01.254Z,12.30
2023-02-22T04:10:04.140Z,10.63
2023-02-22T04:13:07.649Z,9.60
2023-02-22T04:16:10.243Z,11.98
2023-02-22T04:19:12.901Z,10.87
2023-02-22T04:22:16.890Z,12.17
2023-02-22T04:25:19.983Z,9.57
2023-02-22T04:28:22.927Z,12.15
2023-02-22T04:31:25.573Z,10.10
2023-02-22T04:34:28.118Z,10.63
2023-02-22T04:37:34.628Z,14.07
2023-02-22T04:40:37.183Z,13.20
2023-02-22T04:43:39.907Z,16.33
2023-02-22T04:46:42.562Z,8.93
2023-02-22T04:49:45.626Z,10.67
2023-02-22T04:52:50.440Z,11.93
2023-02-22T04:55:53.161Z,11.30
2023-02-22T04:58:55.745Z,15.90
2023-02-22T05:01:58.266Z,16.97
2023-02-22T05:05:00.866Z,14.67
2023-02-22T05:08:04.982Z,25.20
2023-02-22T05:11:07.874Z,16.87
2023-02-22T05:14:10.526Z,18.25
2023-02-22T05:17:13.674Z,15.70
2023-02-22T05:20:23.027Z,13.63
2023-02-22T05:23:27.092Z,14.37
2023-02-22T05:26:29.718Z,12.83
2023-02-22T05:29:32.522Z,17.33
2023-02-22T05:32:35.189Z,13.03
2023-02-22T05:35:38.170Z,15.30
2023-02-22T05:38:44.671Z,15.45
2023-02-22T05:41:47.313Z,12.60
2023-02-22T05:44:50.036Z,18.00
2023-02-22T05:47:53.089Z,16.90
2023-02-22T05:50:56.195Z,13.20
2023-02-22T05:54:00.717Z,14.73
2023-02-22T05:57:03.286Z,12.17
2023-02-22T06:00:07.347Z,12.53
2023-02-22T06:03:12.533Z,16.63
2023-02-22T06:06:15.392Z,14.90
2023-02-22T06:09:19.341Z,17.13
2023-02-22T06:12:21.964Z,14.97
2023-02-22T06:15:25.938Z,17.93
2023-02-22T06:18:30.962Z,19.10
2023-02-22T06:21:33.846Z,15.87
2023-02-22T06:24:39.556Z,16.65
2023-02-22T06:27:42.415Z,16.30
2023-02-22T06:30:45.153Z,13.17
2023-02-22T06:33:48.071Z,20.03
2023-02-22T06:36:50.664Z,12.33
2023-02-22T06:39:54.591Z,16.87
2023-02-22T06:42:57.539Z,15.30
2023-02-22T06:46:00.292Z,13.48
2023-02-22T06:49:02.973Z,13.33
2023-02-22T06:52:06.031Z,14.90
2023-02-22T06:55:10.078Z,11.70
2023-02-22T06:58:12.681Z,11.30
2023-02-22T07:01:15.837Z,10.23
2023-02-22T07:04:18.672Z,14.10
2023-02-22T07:07:23.668Z,11.83
2023-02-22T07:10:31.158Z,19.93
2023-02-22T07:13:33.796Z,10.70
2023-02-22T07:16:36.888Z,11.03
2023-02-22T07:19:39.616Z,15.07
2023-02-22T07:22:42.703Z,15.33
2023-02-22T07:25:46.678Z,13.52
2023-02-22T07:28:49.265Z,14.63
2023-02-22T07:31:51.952Z,13.73
2023-02-22T07:34:54.503Z,14.33
2023-02-22T07:37:57.741Z,12.47
2023-02-22T07:41:01.724Z,12.43
2023-02-22T07:44:04.505Z,16.37
2023-02-22T07:47:07.112Z,14.82
2023-02-22T07:50:10.002Z,17.10
2023-02-22T07:53:15.435Z,14.70
2023-02-22T07:56:19.461Z,14.10
2023-02-22T07:59:22.149Z,13.17
2023-02-22T08:02:26.836Z,18.90
2023-02-22T08:05:31.189Z,12.70
2023-02-22T08:08:34.421Z,11.00
2023-02-22T08:11:38.430Z,27.67
2023-02-22T08:14:40.972Z,15.13
2023-02-22T08:17:43.528Z,11.37
2023-02-22T08:20:47.683Z,11.30
2023-02-22T08:23:52.280Z,16.13
2023-02-22T08:26:56.155Z,18.40
2023-02-22T08:29:58.700Z,13.37
2023-02-22T08:33:02.506Z,18.17
2023-02-22T08:36:05.872Z,12.13
2023-02-22T08:39:08.401Z,10.68
2023-02-22T08:42:12.578Z,17.43
2023-02-22T08:45:15.561Z,13.37
2023-02-22T08:48:18.719Z,10.05
2023-02-22T08:51:22.609Z,9.60
2023-02-22T08:54:25.403Z,12.10
2023-02-22T08:57:29.443Z,11.85
2023-02-22T09:00:33.956Z,14.87
2023-02-22T09:03:36.496Z,13.90
2023-02-22T09:06:41.599Z,12.87
2023-02-22T09:09:44.418Z,13.77
2023-02-22T09:12:48.370Z,13.23
2023-02-22T09:15:50.850Z,13.73
2023-02-22T09:18:53.492Z,14.50
2023-02-22T09:21:56.636Z,23.83
2023-02-22T09:25:02.614Z,18.33
2023-02-22T09:28:12.277Z,14.30
2023-02-22T09:31:15.006Z,16.13
2023-02-22T09:34:20.147Z,14.32
2023-02-22T09:37:23.014Z,16.60
2023-02-22T09:40:30.028Z,17.92
2023-02-22T09:43:40.552Z,18.57
2023-02-22T09:46:45.973Z,14.43
2023-02-22T09:49:57.467Z,22.23
2023-02-22T09:53:04.201Z,13.17
2023-02-22T09:56:11.111Z,17.90
2023-02-22T09:59:18.785Z,19.47
2023-02-22T10:02:27.445Z,11.60
2023-02-22T10:05:33.734Z,13.50
2023-02-22T10:08:38.618Z,17.07
2023-02-22T10:11:52.355Z,11.37
2023-02-22T10:18:47.910Z,14.65
2023-02-22T10:22:18.184Z,15.33
2023-02-22T10:25:23.291Z,15.50
2023-02-22T10:28:30.958Z,17.90
2023-02-22T10:31:38.206Z,14.13
2023-02-22T10:34:42.741Z,11.13
2023-02-22T10:37:45.903Z,14.10
2023-02-22T10:40:51.412Z,11.75
2023-02-22T10:43:53.985Z,13.93
2023-02-22T10:47:00.099Z,20.90
2023-02-22T10:50:04.323Z,19.13
2023-02-22T10:53:06.861Z,13.63
2023-02-22T10:56:18.513Z,14.73
2023-02-22T10:59:29.364Z,10.10
2023-02-22T11:02:35.159Z,9.63
2023-02-22T11:05:39.611Z,11.83
2023-02-22T11:08:43.595Z,16.03
2023-02-22T11:11:47.820Z,12.50
2023-02-22T11:14:50.467Z,9.67
2023-02-22T11:17:57.410Z,10.25
2023-02-22T11:21:05.989Z,10.20
2023-02-22T11:24:10.380Z,9.50
2023-02-22T11:27:24.548Z,12.27
2023-02-22T11:30:31.143Z,11.93
2023-02-22T11:33:35.476Z,15.43
2023-02-22T11:36:40.909Z,10.33
2023-02-22T11:39:44.735Z,14.97
2023-02-22T11:42:47.997Z,15.00
2023-02-22T11:46:02.014Z,14.43
2023-02-22T11:49:09.056Z,11.40
2023-02-22T11:52:19.610Z,12.43
2023-02-22T11:55:41.169Z,13.07
2023-02-22T11:58:48.286Z,17.00
2023-02-22T12:01:53.520Z,12.37
2023-02-22T12:05:08.039Z,11.80
2023-02-22T12:08:20.254Z,13.03
2023-02-22T12:11:27.130Z,12.27
2023-02-22T12:14:35.866Z,11.63
2023-02-22T12:17:59.385Z,12.63
2023-02-22T12:21:08.494Z,14.00
2023-02-22T12:24:14.541Z,11.83
2023-02-22T12:27:20.975Z,11.13
2023-02-22T12:30:25.993Z,16.70
2023-02-22T12:33:31.002Z,15.30
2023-02-22T12:36:40.199Z,11.37
2023-02-22T12:39:59.157Z,13.67
2023-02-22T12:43:05.352Z,18.27
2023-02-22T12:46:11.894Z,14.97
2023-02-22T12:49:18.619Z,11.17
2023-02-22T12:52:36.262Z,13.23
2023-02-22T12:55:45.578Z,12.23
2023-02-22T12:58:54.167Z,12.37
2023-02-22T13:01:59.531Z,12.17
2023-02-22T13:05:02.566Z,13.40
2023-02-22T13:08:22.788Z,13.68
2023-02-22T13:11:29.770Z,11.53
2023-02-22T13:14:42.472Z,11.87
2023-02-22T13:17:50.992Z,10.15
2023-02-22T13:20:56.030Z,9.60
2023-02-22T13:24:05.762Z,13.37
2023-02-22T13:27:11.957Z,11.17
2023-02-22T13:30:23.439Z,16.67
2023-02-22T13:33:33.430Z,10.03
2023-02-22T13:36:39.315Z,12.50
2023-02-22T13:40:03.401Z,10.37
2023-02-22T13:43:35.682Z,11.73
2023-02-22T13:46:54.322Z,10.43
2023-02-22T13:50:08.552Z,10.63
2023-02-22T13:53:15.774Z,10.07
2023-02-22T13:56:20.459Z,20.40
2023-02-22T13:59:28.020Z,15.43
2023-02-22T14:02:55.391Z,11.00
2023-02-22T14:06:00.981Z,12.87
2023-02-22T14:09:09.121Z,18.30
2023-02-22T14:12:50.019Z,12.90
2023-02-22T14:16:20.247Z,14.67
2023-02-22T14:19:23.886Z,13.10
2023-02-22T14:22:28.971Z,16.53
2023-02-22T14:25:36.500Z,13.07
2023-02-22T14:28:43.845Z,14.33
2023-02-22T14:32:12.782Z,16.20
2023-02-22T14:35:27.498Z,18.97
2023-02-22T14:38:34.050Z,16.27
2023-02-22T14:41:38.989Z,19.30
2023-02-22T14:44:45.305Z,13.97
2023-02-22T14:47:54.363Z,15.00
2023-02-22T14:51:05.892Z,14.30
2023-02-22T14:54:21.834Z,13.67
2023-02-22T14:57:29.812Z,13.23
2023-02-22T15:00:41.947Z,19.60
2023-02-22T15:03:45.507Z,15.43
2023-02-22T15:06:48.713Z,13.67
2023-02-22T15:09:51.474Z,11.63
2023-02-22T15:13:08.689Z,13.98
2023-02-22T15:16:15.588Z,16.93
2023-02-22T15:19:25.219Z,16.10
2023-02-22T15:22:32.049Z,14.07
2023-02-22T15:25:37.515Z,21.77
2023-02-22T15:28:40.191Z,20.63
2023-02-22T15:31:48.232Z,19.88
2023-02-22T15:34:51.084Z,14.57
2023-02-22T15:38:00.170Z,11.27
2023-02-22T15:41:05.197Z,16.70
2023-02-22T15:44:23.125Z,16.37
2023-02-22T15:47:29.277Z,22.57
2023-02-22T15:50:33.513Z,20.37
2023-02-22T15:53:41.028Z,19.23
2023-02-22T15:56:49.626Z,20.43
2023-02-22T15:59:54.239Z,21.30
2023-02-22T16:02:59.122Z,17.63
2023-02-22T16:06:11.529Z,17.27
2023-02-22T16:09:23.336Z,15.87
2023-02-22T16:12:33.569Z,19.03
2023-02-22T16:15:40.513Z,18.20
2023-02-22T16:19:10.856Z,22.87
2023-02-22T16:22:35.158Z,19.77
2023-02-22T16:26:01.763Z,18.33
2023-02-22T16:29:45.391Z,18.13
2023-02-22T16:32:51.357Z,16.97
2023-02-22T16:36:03.692Z,23.70
2023-02-22T16:39:08.466Z,19.40
2023-02-22T16:42:25.652Z,20.83
2023-02-22T16:45:35.449Z,18.07
2023-02-22T16:48:50.268Z,18.00
2023-02-22T16:52:07.562Z,20.43
2023-02-22T16:55:27.582Z,17.37
2023-02-22T16:58:39.387Z,20.20
2023-02-22T17:01:47.684Z,18.00
2023-02-22T17:05:12.414Z,15.00
2023-02-22T17:08:23.016Z,18.23
2023-02-22T17:11:37.632Z,20.57
2023-02-22T17:14:50.678Z,14.87
2023-02-22T17:18:28.141Z,20.30
2023-02-22T17:21:45.992Z,21.30
2023-02-22T17:28:19.608Z,46.80
2023-02-22T17:31:28.474Z,44.77
2023-02-22T17:34:35.355Z,39.53
2023-02-22T17:37:43.674Z,37.30
2023-02-22T17:40:52.274Z,29.27
2023-02-22T17:43:59.953Z,30.63
2023-02-22T17:50:31.656Z,23.73
2023-02-22T17:53:36.138Z,26.00
2023-02-22T17:56:39.140Z,31.60
2023-02-22T17:59:43.155Z,25.73
2023-02-22T18:02:45.791Z,22.17
2023-02-22T18:05:51.157Z,24.00
2023-02-22T18:08:56.408Z,22.73
2023-02-22T18:11:59.536Z,24.00
2023-02-22T18:15:03.466Z,26.17
2023-02-22T18:18:10.626Z,24.80
2023-02-22T18:21:21.523Z,23.53
2023-02-22T18:24:29.098Z,22.53
2023-02-22T18:27:35.054Z,27.47
2023-02-22T18:30:44.738Z,21.77
2023-02-22T18:33:50.574Z,22.43
2023-02-22T18:36:53.272Z,21.23
2023-02-22T18:39:56.121Z,23.05
2023-02-22T18:42:58.818Z,23.45
2023-02-22T18:46:33.667Z,20.73
2023-02-22T18:49:36.462Z,24.60
2023-02-22T18:52:45.649Z,23.98
2023-02-22T18:55:48.386Z,21.47
2023-02-22T18:58:54.563Z,20.00
2023-02-22T19:01:58.697Z,23.93
2023-02-22T19:05:02.633Z,18.70
2023-02-22T19:08:11.329Z,20.63
2023-02-22T19:11:18.665Z,24.50
2023-02-22T19:14:23.319Z,20.50
2023-02-22T19:17:28.566Z,16.23
2023-02-22T19:20:33.221Z,18.00
2023-02-22T19:23:45.386Z,16.37
2023-02-22T19:26:53.644Z,16.50
2023-02-22T19:30:18.955Z,19.30
2023-02-22T19:33:26.073Z,18.57
2023-02-22T19:36:30.961Z,18.37
2023-02-22T19:39:49.136Z,15.33
2023-02-22T19:42:52.640Z,17.97
2023-02-22T19:45:56.045Z,21.05
2023-02-22T19:49:00.116Z,18.20
2023-02-22T19:52:03.933Z,23.40
2023-02-22T19:55:12.734Z,21.33
2023-02-22T19:58:17.269Z,20.53
2023-02-22T20:01:26.419Z,17.00
2023-02-22T20:04:32.025Z,19.83
2023-02-22T20:07:34.727Z,21.07
2023-02-22T20:10:38.048Z,18.90
2023-02-22T20:13:41.644Z,20.58
2023-02-22T20:19:49.062Z,19.03
2023-02-22T20:22:51.939Z,21.63
2023-02-22T20:25:55.478Z,17.65
2023-02-22T20:28:58.701Z,20.02
2023-02-22T20:32:02.900Z,19.20
2023-02-22T20:35:08.404Z,18.60
2023-02-22T20:38:14.772Z,17.50
2023-02-22T20:41:23.101Z,19.47
2023-02-22T20:44:25.918Z,23.10
2023-02-22T20:47:28.743Z,27.42
2023-02-22T20:50:33.626Z,21.55
2023-02-22T20:53:36.432Z,19.17
2023-02-22T20:56:40.431Z,24.13
2023-02-22T20:59:44.712Z,24.97
2023-02-22T21:02:47.488Z,24.33
2023-02-22T21:05:51.571Z,27.88
2023-02-22T21:08:57.052Z,22.33
2023-02-22T21:11:59.763Z,30.90
2023-02-22T21:15:02.853Z,21.40
2023-02-22T21:18:06.304Z,20.30
2023-02-22T21:21:10.326Z,23.40
2023-02-22T21:24:13.008Z,17.90
2023-02-22T21:27:16.163Z,20.47
2023-02-22T21:30:19.235Z,20.70
2023-02-22T21:33:22.109Z,28.92
2023-02-22T21:36:26.782Z,26.58
2023-02-22T21:39:29.888Z,24.63
2023-02-22T21:42:33.184Z,22.95
2023-02-22T21:45:36.210Z,25.33
2023-02-22T21:48:39.233Z,23.50
2023-02-22T21:51:44.699Z,26.23
2023-02-22T21:54:47.865Z,25.60
2023-02-22T21:57:50.604Z,21.17
2023-02-22T22:00:53.377Z,29.30
2023-02-22T22:03:56.658Z,26.23
2023-02-22T22:07:03.770Z,22.60
2023-02-22T22:10:07.082Z,21.10
2023-02-22T22:13:09.878Z,22.67
2023-02-22T22:16:14.797Z,26.10
2023-02-22T22:19:17.716Z,24.93
2023-02-22T22:22:23.093Z,25.48
2023-02-22T22:25:28.259Z,25.70
2023-02-22T22:28:31.779Z,23.57
2023-02-22T22:31:34.500Z,21.70
2023-02-22T22:34:37.802Z,31.40
2023-02-22T22:37:43.106Z,28.42
2023-02-22T22:40:50.902Z,25.60
2023-02-22T22:43:54.036Z,32.00
2023-02-22T22:46:56.817Z,25.85
2023-02-22T22:50:01.572Z,26.63
2023-02-22T22:53:06.064Z,25.83
2023-02-22T22:56:14.571Z,23.50
2023-02-22T22:59:17.873Z,28.23
2023-02-22T23:02:21.371Z,25.05
2023-02-22T23:05:28.145Z,29.67
2023-02-22T23:08:43.123Z,30.77
2023-02-22T23:11:47.674Z,28.13
2023-02-22T23:14:51.998Z,26.33
2023-02-22T23:17:56.145Z,30.30
2023-02-22T23:21:05.319Z,26.03
2023-02-22T23:24:09.362Z,36.63
2023-02-22T23:27:12.274Z,30.80
2023-02-22T23:30:18.588Z,25.77
2023-02-22T23:33:21.233Z,25.87
2023-02-22T23:36:23.812Z,26.30
2023-02-22T23:39:27.812Z,29.13
2023-02-22T23:42:30.407Z,30.13
2023-02-22T23:45:38.492Z,26.67
2023-02-22T23:48:46.588Z,27.60
2023-02-22T23:51:49.853Z,23.37
2023-02-22T23:54:54.462Z,24.10
2023-02-22T23:57:59.302Z,26.30
